createdAt,value
2023-10-01T00:03:00.209Z,133
2023-10-01T00:15:00.356Z,131.5
2023-10-01T00:27:00.331Z,122.5
2023-10-01T00:39:00.393Z,112.5
2023-10-01T00:51:00.243Z,109.5
2023-10-01T01:03:00.440Z,106.5
2023-10-01T01:15:00.329Z,103.5
2023-10-01T01:27:00.297Z,108.5
2023-10-01T01:39:00.334Z,109.5
2023-10-01T01:51:00.374Z,112
2023-10-01T02:03:00.501Z,121
2023-10-01T02:15:00.462Z,131
2023-10-01T02:27:00.889Z,127
2023-10-01T02:39:00.641Z,125.5
2023-10-01T02:51:00.402Z,122.5
2023-10-01T03:03:00.390Z,125.5
2023-10-01T03:15:00.556Z,130.5
2023-10-01T03:27:00.469Z,131.5
2023-10-01T03:39:00.797Z,131
2023-10-01T03:51:00.359Z,131.5
2023-10-01T04:03:00.634Z,128
2023-10-01T04:15:00.469Z,131
2023-10-01T04:27:00.494Z,131.5
2023-10-01T04:39:00.670Z,131
2023-10-01T04:51:00.560Z,126
2023-10-01T05:03:00.538Z,125
2023-10-01T05:15:00.480Z,122
2023-10-01T05:27:00.700Z,126
2023-10-01T05:39:00.753Z,131
2023-10-01T05:51:00.523Z,131.5
2023-10-01T06:03:00.552Z,125
2023-10-01T06:15:00.717Z,123.5
2023-10-01T06:27:00.666Z,122
2023-10-01T06:39:00.734Z,121
2023-10-01T06:51:00.766Z,113.5
2023-10-01T07:03:00.750Z,115.5
2023-10-01T07:15:00.656Z,119
2023-10-01T07:27:00.616Z,122.5
2023-10-01T07:39:01.017Z,115.5
2023-10-01T07:51:00.724Z,116.5
2023-10-01T08:03:00.790Z,117.5
2023-10-01T08:15:00.653Z,125
2023-10-01T08:27:00.879Z,115
2023-10-01T08:39:00.937Z,108
2023-10-01T08:51:00.762Z,102.5
2023-10-01T09:03:00.967Z,102
2023-10-01T09:15:00.837Z,101
2023-10-01T09:27:00.855Z,98
2023-10-01T09:39:00.864Z,93.5
2023-10-01T09:51:01.014Z,91.5
2023-10-01T10:03:01.210Z,91.5
2023-10-01T10:15:01.065Z,86.5
2023-10-01T10:27:05.555Z,79
2023-10-01T10:39:01.157Z,67
2023-10-01T10:51:12.669Z,62.5
2023-10-01T11:03:01.042Z,54.5
2023-10-01T11:15:00.898Z,52.5
2023-10-01T11:27:01.024Z,53
2023-10-01T11:39:01.332Z,50.5
2023-10-01T11:51:00.937Z,42
2023-10-01T12:03:00.931Z,35.5
2023-10-01T12:15:01.014Z,34.5
2023-10-01T12:27:01.062Z,36
2023-10-01T12:39:00.928Z,36
2023-10-01T12:51:01.449Z,39.5
2023-10-01T13:03:01.504Z,38
2023-10-01T13:15:01.180Z,32.5
2023-10-01T13:27:00.981Z,44.5
2023-10-01T13:39:01.237Z,40
2023-10-01T13:51:01.147Z,38
2023-10-01T14:03:01.222Z,36.5
2023-10-01T14:15:01.113Z,33.5
2023-10-01T14:27:01.251Z,34
2023-10-01T14:39:01.319Z,32.5
2023-10-01T14:51:01.164Z,31
2023-10-01T15:03:01.229Z,32
2023-10-01T15:15:02.152Z,33
2023-10-01T15:27:01.285Z,34
2023-10-01T15:39:01.433Z,32.5
2023-10-01T15:51:01.180Z,32.5
2023-10-01T16:03:01.265Z,32.5
2023-10-01T16:15:01.327Z,34
2023-10-01T16:27:01.315Z,32.5
2023-10-01T16:39:01.348Z,32.5
2023-10-01T16:51:01.354Z,33
2023-10-01T17:03:01.432Z,32.5
2023-10-01T17:27:01.311Z,33.5
2023-10-01T17:39:01.589Z,33.5
2023-10-01T17:51:01.375Z,21
2023-10-01T18:03:01.541Z,20
2023-10-01T18:15:01.397Z,35.5
2023-10-01T18:27:01.460Z,38.5
2023-10-01T18:39:01.585Z,39
2023-10-01T18:51:01.358Z,41.5
2023-10-01T19:03:01.353Z,44
2023-10-01T19:15:01.471Z,42
2023-10-01T19:27:01.470Z,50.5
2023-10-01T19:39:01.691Z,52.5
2023-10-01T19:51:01.561Z,50
2023-10-01T20:03:01.586Z,49
2023-10-01T20:15:01.466Z,50
2023-10-01T20:27:01.472Z,48.5
2023-10-01T20:39:01.582Z,49
2023-10-01T20:51:01.684Z,50
2023-10-01T21:03:01.922Z,42.5
2023-10-01T21:15:01.633Z,39.5
2023-10-01T21:27:01.610Z,39
2023-10-01T21:39:01.515Z,36.5
2023-10-01T21:51:01.504Z,38.5
2023-10-01T22:03:01.807Z,42.5
2023-10-01T22:15:01.618Z,50
2023-10-01T22:27:01.579Z,49
2023-10-01T22:39:01.586Z,43
2023-10-01T22:51:01.876Z,37.5
2023-10-01T23:03:02.241Z,35.5
2023-10-01T23:15:01.612Z,35.5
2023-10-01T23:27:01.859Z,40
2023-10-01T23:39:01.713Z,40.5
2023-10-01T23:51:01.862Z,35.5
